sensor_id;sensor_type;location;lat;lon;timestamp;P1;durP1;ratioP1;P2;durP2;ratioP2
53281;SDS011;39167;52.794;6.892;2023-02-28T00:00:34;8.05;;;4.03;;
53281;SDS011;39167;52.794;6.892;2023-02-28T00:03:00;11.73;;;4.10;;
53281;SDS011;39167;52.794;6.892;2023-02-28T00:05:27;11.50;;;4.55;;
53281;SDS011;39167;52.794;6.892;2023-02-28T00:07:53;12.10;;;3.80;;
53281;SDS011;39167;52.794;6.892;2023-02-28T00:10:20;13.90;;;4.20;;
53281;SDS011;39167;52.794;6.892;2023-02-28T00:12:48;10.65;;;4.20;;
53281;SDS011;39167;52.794;6.892;2023-02-28T00:15:15;9.50;;;3.83;;
53281;SDS011;39167;52.794;6.892;2023-02-28T00:17:42;10.38;;;3.70;;
53281;SDS011;39167;52.794;6.892;2023-02-28T00:20:08;9.77;;;3.88;;
53281;SDS011;39167;52.794;6.892;2023-02-28T00:22:46;10.93;;;3.90;;
53281;SDS011;39167;52.794;6.892;2023-02-28T00:25:14;8.98;;;4.05;;
53281;SDS011;39167;52.794;6.892;2023-02-28T00:27:43;9.55;;;3.60;;
53281;SDS011;39167;52.794;6.892;2023-02-28T00:30:10;8.43;;;3.50;;
53281;SDS011;39167;52.794;6.892;2023-02-28T00:32:38;11.65;;;4.47;;
53281;SDS011;39167;52.794;6.892;2023-02-28T00:35:04;7.35;;;4.28;;
53281;SDS011;39167;52.794;6.892;2023-02-28T00:37:31;10.75;;;3.97;;
53281;SDS011;39167;52.794;6.892;2023-02-28T00:39:57;10.60;;;3.72;;
53281;SDS011;39167;52.794;6.892;2023-02-28T00:42:23;6.65;;;3.97;;
53281;SDS011;39167;52.794;6.892;2023-02-28T00:44:49;11.85;;;3.55;;
53281;SDS011;39167;52.794;6.892;2023-02-28T00:47:15;14.30;;;4.25;;
53281;SDS011;39167;52.794;6.892;2023-02-28T00:49:41;8.13;;;3.10;;
53281;SDS011;39167;52.794;6.892;2023-02-28T00:52:06;8.60;;;3.55;;
53281;SDS011;39167;52.794;6.892;2023-02-28T00:54:32;9.65;;;4.28;;
53281;SDS011;39167;52.794;6.892;2023-02-28T00:56:58;8.00;;;3.70;;
53281;SDS011;39167;52.794;6.892;2023-02-28T00:59:25;7.65;;;3.80;;
53281;SDS011;39167;52.794;6.892;2023-02-28T01:01:50;9.68;;;4.07;;
53281;SDS011;39167;52.794;6.892;2023-02-28T01:04:16;11.07;;;3.60;;
53281;SDS011;39167;52.794;6.892;2023-02-28T01:06:42;9.25;;;3.92;;
53281;SDS011;39167;52.794;6.892;2023-02-28T01:09:08;9.43;;;3.60;;
53281;SDS011;39167;52.794;6.892;2023-02-28T01:11:34;8.80;;;4.22;;
53281;SDS011;39167;52.794;6.892;2023-02-28T01:14:01;9.85;;;4.00;;
53281;SDS011;39167;52.794;6.892;2023-02-28T01:16:27;11.30;;;3.95;;
53281;SDS011;39167;52.794;6.892;2023-02-28T01:18:53;7.72;;;3.92;;
53281;SDS011;39167;52.794;6.892;2023-02-28T01:21:20;10.63;;;4.50;;
53281;SDS011;39167;52.794;6.892;2023-02-28T01:23:47;8.32;;;3.92;;
53281;SDS011;39167;52.794;6.892;2023-02-28T01:26:15;10.35;;;4.53;;
53281;SDS011;39167;52.794;6.892;2023-02-28T01:28:45;10.85;;;4.00;;
53281;SDS011;39167;52.794;6.892;2023-02-28T01:31:11;8.20;;;4.07;;
53281;SDS011;39167;52.794;6.892;2023-02-28T01:33:38;10.63;;;4.13;;
53281;SDS011;39167;52.794;6.892;2023-02-28T01:36:11;7.32;;;4.00;;
53281;SDS011;39167;52.794;6.892;2023-02-28T01:38:38;9.75;;;4.13;;
53281;SDS011;39167;52.794;6.892;2023-02-28T01:41:04;7.88;;;4.15;;
53281;SDS011;39167;52.794;6.892;2023-02-28T01:43:32;8.85;;;3.83;;
53281;SDS011;39167;52.794;6.892;2023-02-28T01:46:07;9.60;;;4.43;;
53281;SDS011;39167;52.794;6.892;2023-02-28T01:48:34;13.07;;;4.35;;
53281;SDS011;39167;52.794;6.892;2023-02-28T01:51:05;13.45;;;4.10;;
53281;SDS011;39167;52.794;6.892;2023-02-28T01:53:45;8.27;;;4.72;;
53281;SDS011;39167;52.794;6.892;2023-02-28T01:56:26;11.50;;;4.82;;
53281;SDS011;39167;52.794;6.892;2023-02-28T01:58:55;12.25;;;4.85;;
53281;SDS011;39167;52.794;6.892;2023-02-28T02:01:22;8.30;;;4.32;;
53281;SDS011;39167;52.794;6.892;2023-02-28T02:03:51;13.45;;;4.35;;
53281;SDS011;39167;52.794;6.892;2023-02-28T02:06:23;9.45;;;4.32;;
53281;SDS011;39167;52.794;6.892;2023-02-28T02:08:53;9.35;;;4.47;;
53281;SDS011;39167;52.794;6.892;2023-02-28T02:11:19;10.88;;;4.75;;
53281;SDS011;39167;52.794;6.892;2023-02-28T02:14:03;9.10;;;4.60;;
53281;SDS011;39167;52.794;6.892;2023-02-28T02:27:57;10.93;;;4.57;;
53281;SDS011;39167;52.794;6.892;2023-02-28T02:49:03;11.43;;;5.70;;
53281;SDS011;39167;52.794;6.892;2023-02-28T02:51:33;10.50;;;4.87;;
53281;SDS011;39167;52.794;6.892;2023-02-28T02:54:02;13.60;;;6.35;;
53281;SDS011;39167;52.794;6.892;2023-02-28T02:56:34;13.50;;;6.10;;
53281;SDS011;39167;52.794;6.892;2023-02-28T02:59:05;11.73;;;5.70;;
53281;SDS011;39167;52.794;6.892;2023-02-28T03:01:34;11.75;;;6.40;;
53281;SDS011;39167;52.794;6.892;2023-02-28T03:04:03;13.02;;;6.15;;
53281;SDS011;39167;52.794;6.892;2023-02-28T03:06:45;13.57;;;6.32;;
53281;SDS011;39167;52.794;6.892;2023-02-28T03:09:11;14.63;;;6.55;;
53281;SDS011;39167;52.794;6.892;2023-02-28T03:11:37;12.40;;;6.43;;
53281;SDS011;39167;52.794;6.892;2023-02-28T03:14:10;11.70;;;5.85;;
53281;SDS011;39167;52.794;6.892;2023-02-28T03:19:37;12.13;;;5.60;;
53281;SDS011;39167;52.794;6.892;2023-02-28T03:25:00;12.68;;;6.75;;
53281;SDS011;39167;52.794;6.892;2023-02-28T03:27:41;10.98;;;5.90;;
53281;SDS011;39167;52.794;6.892;2023-02-28T03:31:02;11.27;;;5.47;;
53281;SDS011;39167;52.794;6.892;2023-02-28T03:33:29;11.02;;;5.50;;
53281;SDS011;39167;52.794;6.892;2023-02-28T03:36:07;8.70;;;5.10;;
53281;SDS011;39167;52.794;6.892;2023-02-28T03:38:45;13.38;;;5.90;;
53281;SDS011;39167;52.794;6.892;2023-02-28T03:41:26;10.30;;;5.63;;
53281;SDS011;39167;52.794;6.892;2023-02-28T03:44:03;10.95;;;5.78;;
53281;SDS011;39167;52.794;6.892;2023-02-28T03:46:36;14.25;;;6.90;;
53281;SDS011;39167;52.794;6.892;2023-02-28T03:49:09;12.93;;;6.20;;
53281;SDS011;39167;52.794;6.892;2023-02-28T03:51:49;12.55;;;6.35;;
53281;SDS011;39167;52.794;6.892;2023-02-28T03:54:25;12.65;;;5.97;;
53281;SDS011;39167;52.794;6.892;2023-02-28T03:57:12;14.10;;;6.72;;
53281;SDS011;39167;52.794;6.892;2023-02-28T03:59:47;14.45;;;6.97;;
53281;SDS011;39167;52.794;6.892;2023-02-28T04:02:19;13.32;;;7.32;;
53281;SDS011;39167;52.794;6.892;2023-02-28T04:04:45;12.50;;;6.68;;
53281;SDS011;39167;52.794;6.892;2023-02-28T04:07:13;13.00;;;6.85;;
53281;SDS011;39167;52.794;6.892;2023-02-28T04:09:42;12.38;;;7.25;;
53281;SDS011;39167;52.794;6.892;2023-02-28T04:12:08;11.30;;;6.85;;
53281;SDS011;39167;52.794;6.892;2023-02-28T04:14:34;12.32;;;6.50;;
53281;SDS011;39167;52.794;6.892;2023-02-28T04:17:00;12.50;;;7.07;;
53281;SDS011;39167;52.794;6.892;2023-02-28T04:19:25;16.33;;;6.88;;
53281;SDS011;39167;52.794;6.892;2023-02-28T04:21:52;13.18;;;7.15;;
53281;SDS011;39167;52.794;6.892;2023-02-28T04:24:19;15.23;;;6.70;;
53281;SDS011;39167;52.794;6.892;2023-02-28T04:26:48;14.05;;;7.40;;
53281;SDS011;39167;52.794;6.892;2023-02-28T04:29:20;12.88;;;6.72;;
53281;SDS011;39167;52.794;6.892;2023-02-28T04:31:50;13.77;;;7.30;;
53281;SDS011;39167;52.794;6.892;2023-02-28T04:34:18;11.43;;;6.88;;
53281;SDS011;39167;52.794;6.892;2023-02-28T04:36:44;13.02;;;6.72;;
53281;SDS011;39167;52.794;6.892;2023-02-28T04:39:11;14.65;;;6.60;;
53281;SDS011;39167;52.794;6.892;2023-02-28T04:41:37;11.20;;;6.68;;
53281;SDS011;39167;52.794;6.892;2023-02-28T04:44:03;12.60;;;6.93;;
53281;SDS011;39167;52.794;6.892;2023-02-28T04:46:28;13.00;;;7.43;;
53281;SDS011;39167;52.794;6.892;2023-02-28T04:48:55;12.07;;;7.38;;
53281;SDS011;39167;52.794;6.892;2023-02-28T04:51:21;14.57;;;7.40;;
53281;SDS011;39167;52.794;6.892;2023-02-28T04:53:47;14.50;;;7.75;;
53281;SDS011;39167;52.794;6.892;2023-02-28T04:56:15;12.30;;;7.20;;
53281;SDS011;39167;52.794;6.892;2023-02-28T04:58:42;19.23;;;8.23;;
53281;SDS011;39167;52.794;6.892;2023-02-28T05:01:22;15.32;;;7.45;;
53281;SDS011;39167;52.794;6.892;2023-02-28T05:03:52;12.00;;;6.78;;
53281;SDS011;39167;52.794;6.892;2023-02-28T05:06:19;12.95;;;7.30;;
53281;SDS011;39167;52.794;6.892;2023-02-28T05:08:46;14.50;;;8.38;;
53281;SDS011;39167;52.794;6.892;2023-02-28T05:11:23;13.50;;;7.20;;
53281;SDS011;39167;52.794;6.892;2023-02-28T05:13:51;18.27;;;7.90;;
53281;SDS011;39167;52.794;6.892;2023-02-28T05:16:18;18.38;;;9.07;;
53281;SDS011;39167;52.794;6.892;2023-02-28T05:18:44;18.40;;;7.63;;
53281;SDS011;39167;52.794;6.892;2023-02-28T05:23:54;12.98;;;7.97;;
53281;SDS011;39167;52.794;6.892;2023-02-28T05:26:22;13.55;;;7.78;;
53281;SDS011;39167;52.794;6.892;2023-02-28T05:28:47;12.70;;;7.97;;
53281;SDS011;39167;52.794;6.892;2023-02-28T05:31:14;15.02;;;8.05;;
53281;SDS011;39167;52.794;6.892;2023-02-28T05:33:40;12.43;;;7.55;;
53281;SDS011;39167;52.794;6.892;2023-02-28T05:36:06;17.10;;;9.10;;
53281;SDS011;39167;52.794;6.892;2023-02-28T05:38:32;18.70;;;8.57;;
53281;SDS011;39167;52.794;6.892;2023-02-28T05:40:58;15.32;;;8.93;;
53281;SDS011;39167;52.794;6.892;2023-02-28T05:43:23;15.60;;;9.18;;
53281;SDS011;39167;52.794;6.892;2023-02-28T05:45:49;13.38;;;8.13;;
53281;SDS011;39167;52.794;6.892;2023-02-28T05:48:15;15.13;;;8.20;;
53281;SDS011;39167;52.794;6.892;2023-02-28T05:50:41;16.17;;;8.73;;
53281;SDS011;39167;52.794;6.892;2023-02-28T05:53:09;14.50;;;7.90;;
53281;SDS011;39167;52.794;6.892;2023-02-28T05:55:35;13.57;;;7.53;;
53281;SDS011;39167;52.794;6.892;2023-02-28T05:58:02;16.83;;;8.77;;
53281;SDS011;39167;52.794;6.892;2023-02-28T06:00:28;14.70;;;7.70;;
53281;SDS011;39167;52.794;6.892;2023-02-28T06:02:53;14.73;;;7.97;;
53281;SDS011;39167;52.794;6.892;2023-02-28T06:05:21;17.35;;;8.18;;
53281;SDS011;39167;52.794;6.892;2023-02-28T06:07:47;15.57;;;8.05;;
53281;SDS011;39167;52.794;6.892;2023-02-28T06:10:13;14.00;;;8.40;;
53281;SDS011;39167;52.794;6.892;2023-02-28T06:12:39;13.18;;;7.88;;
53281;SDS011;39167;52.794;6.892;2023-02-28T06:15:07;14.40;;;8.30;;
53281;SDS011;39167;52.794;6.892;2023-02-28T06:17:37;15.48;;;8.27;;
53281;SDS011;39167;52.794;6.892;2023-02-28T06:20:03;14.50;;;7.47;;
53281;SDS011;39167;52.794;6.892;2023-02-28T06:22:29;13.07;;;7.50;;
53281;SDS011;39167;52.794;6.892;2023-02-28T06:24:56;14.88;;;7.70;;
53281;SDS011;39167;52.794;6.892;2023-02-28T06:27:22;12.32;;;7.63;;
53281;SDS011;39167;52.794;6.892;2023-02-28T06:29:48;17.05;;;7.75;;
53281;SDS011;39167;52.794;6.892;2023-02-28T06:32:14;14.55;;;7.70;;
53281;SDS011;39167;52.794;6.892;2023-02-28T06:34:39;14.57;;;7.55;;
53281;SDS011;39167;52.794;6.892;2023-02-28T06:37:05;14.60;;;8.40;;
53281;SDS011;39167;52.794;6.892;2023-02-28T06:39:31;13.93;;;7.97;;
53281;SDS011;39167;52.794;6.892;2023-02-28T06:41:57;14.45;;;7.47;;
53281;SDS011;39167;52.794;6.892;2023-02-28T06:44:23;13.68;;;8.07;;
53281;SDS011;39167;52.794;6.892;2023-02-28T06:46:49;14.15;;;7.25;;
53281;SDS011;39167;52.794;6.892;2023-02-28T06:49:15;14.63;;;7.47;;
53281;SDS011;39167;52.794;6.892;2023-02-28T06:51:42;11.55;;;7.25;;
53281;SDS011;39167;52.794;6.892;2023-02-28T06:54:10;10.90;;;7.60;;
53281;SDS011;39167;52.794;6.892;2023-02-28T06:56:36;13.45;;;8.07;;
53281;SDS011;39167;52.794;6.892;2023-02-28T06:59:02;12.52;;;7.93;;
53281;SDS011;39167;52.794;6.892;2023-02-28T07:01:28;16.38;;;6.72;;
53281;SDS011;39167;52.794;6.892;2023-02-28T07:03:57;11.55;;;6.63;;
53281;SDS011;39167;52.794;6.892;2023-02-28T07:06:25;15.73;;;7.53;;
53281;SDS011;39167;52.794;6.892;2023-02-28T07:08:52;14.35;;;7.57;;
53281;SDS011;39167;52.794;6.892;2023-02-28T07:11:19;12.10;;;7.32;;
53281;SDS011;39167;52.794;6.892;2023-02-28T07:13:47;13.60;;;6.93;;
53281;SDS011;39167;52.794;6.892;2023-02-28T07:16:14;15.15;;;7.22;;
53281;SDS011;39167;52.794;6.892;2023-02-28T07:18:40;11.43;;;6.10;;
53281;SDS011;39167;52.794;6.892;2023-02-28T07:21:06;14.95;;;7.78;;
53281;SDS011;39167;52.794;6.892;2023-02-28T07:23:34;11.73;;;6.80;;
53281;SDS011;39167;52.794;6.892;2023-02-28T07:26:00;11.13;;;6.47;;
53281;SDS011;39167;52.794;6.892;2023-02-28T07:28:26;11.57;;;6.50;;
53281;SDS011;39167;52.794;6.892;2023-02-28T07:30:52;13.68;;;7.57;;
53281;SDS011;39167;52.794;6.892;2023-02-28T07:33:18;13.40;;;6.70;;
53281;SDS011;39167;52.794;6.892;2023-02-28T07:35:44;10.80;;;6.65;;
53281;SDS011;39167;52.794;6.892;2023-02-28T07:38:09;10.82;;;6.82;;
53281;SDS011;39167;52.794;6.892;2023-02-28T07:40:36;15.48;;;7.32;;
53281;SDS011;39167;52.794;6.892;2023-02-28T07:43:02;10.90;;;6.68;;
53281;SDS011;39167;52.794;6.892;2023-02-28T07:45:28;11.70;;;7.03;;
53281;SDS011;39167;52.794;6.892;2023-02-28T07:47:56;11.48;;;6.85;;
53281;SDS011;39167;52.794;6.892;2023-02-28T07:50:22;12.27;;;6.63;;
53281;SDS011;39167;52.794;6.892;2023-02-28T07:52:48;10.25;;;6.57;;
53281;SDS011;39167;52.794;6.892;2023-02-28T07:55:14;11.18;;;6.63;;
53281;SDS011;39167;52.794;6.892;2023-02-28T07:57:41;16.52;;;7.53;;
53281;SDS011;39167;52.794;6.892;2023-02-28T08:00:08;14.55;;;7.55;;
53281;SDS011;39167;52.794;6.892;2023-02-28T08:02:35;16.38;;;7.30;;
53281;SDS011;39167;52.794;6.892;2023-02-28T08:05:02;12.30;;;7.45;;
53281;SDS011;39167;52.794;6.892;2023-02-28T08:07:27;12.00;;;7.95;;
53281;SDS011;39167;52.794;6.892;2023-02-28T08:09:53;18.58;;;8.50;;
53281;SDS011;39167;52.794;6.892;2023-02-28T08:12:19;15.85;;;7.88;;
53281;SDS011;39167;52.794;6.892;2023-02-28T08:14:45;14.68;;;8.02;;
53281;SDS011;39167;52.794;6.892;2023-02-28T08:17:11;15.05;;;7.75;;
53281;SDS011;39167;52.794;6.892;2023-02-28T08:19:37;11.27;;;7.00;;
53281;SDS011;39167;52.794;6.892;2023-02-28T08:22:03;11.60;;;6.90;;
53281;SDS011;39167;52.794;6.892;2023-02-28T08:24:29;12.02;;;6.57;;
53281;SDS011;39167;52.794;6.892;2023-02-28T08:26:55;10.55;;;5.32;;
53281;SDS011;39167;52.794;6.892;2023-02-28T08:29:20;11.10;;;6.18;;
53281;SDS011;39167;52.794;6.892;2023-02-28T08:31:46;11.63;;;5.93;;
53281;SDS011;39167;52.794;6.892;2023-02-28T08:34:13;11.27;;;5.30;;
53281;SDS011;39167;52.794;6.892;2023-02-28T08:36:40;11.80;;;5.70;;
53281;SDS011;39167;52.794;6.892;2023-02-28T08:39:08;9.50;;;5.57;;
53281;SDS011;39167;52.794;6.892;2023-02-28T08:41:34;10.55;;;5.30;;
53281;SDS011;39167;52.794;6.892;2023-02-28T08:43:59;11.07;;;5.70;;
53281;SDS011;39167;52.794;6.892;2023-02-28T08:46:25;12.05;;;5.50;;
53281;SDS011;39167;52.794;6.892;2023-02-28T08:48:52;13.57;;;6.63;;
53281;SDS011;39167;52.794;6.892;2023-02-28T08:51:19;15.93;;;7.97;;
53281;SDS011;39167;52.794;6.892;2023-02-28T08:53:51;11.77;;;6.95;;
53281;SDS011;39167;52.794;6.892;2023-02-28T08:56:21;14.20;;;8.77;;
53281;SDS011;39167;52.794;6.892;2023-02-28T08:58:47;17.05;;;8.60;;
53281;SDS011;39167;52.794;6.892;2023-02-28T09:01:24;15.38;;;8.10;;
53281;SDS011;39167;52.794;6.892;2023-02-28T09:03:52;16.00;;;8.35;;
53281;SDS011;39167;52.794;6.892;2023-02-28T09:06:19;16.80;;;8.65;;
53281;SDS011;39167;52.794;6.892;2023-02-28T09:08:46;17.05;;;8.02;;
53281;SDS011;39167;52.794;6.892;2023-02-28T09:11:11;15.93;;;8.07;;
53281;SDS011;39167;52.794;6.892;2023-02-28T09:13:37;16.38;;;9.18;;
53281;SDS011;39167;52.794;6.892;2023-02-28T09:16:06;13.40;;;8.02;;
53281;SDS011;39167;52.794;6.892;2023-02-28T09:18:35;13.20;;;8.60;;
53281;SDS011;39167;52.794;6.892;2023-02-28T09:21:06;13.93;;;8.53;;
53281;SDS011;39167;52.794;6.892;2023-02-28T09:23:34;12.80;;;7.22;;
53281;SDS011;39167;52.794;6.892;2023-02-28T09:26:03;12.32;;;7.75;;
53281;SDS011;39167;52.794;6.892;2023-02-28T09:28:29;12.45;;;7.88;;
53281;SDS011;39167;52.794;6.892;2023-02-28T09:30:55;9.45;;;5.63;;
53281;SDS011;39167;52.794;6.892;2023-02-28T09:33:23;9.73;;;5.50;;
53281;SDS011;39167;52.794;6.892;2023-02-28T09:35:50;10.90;;;5.80;;
53281;SDS011;39167;52.794;6.892;2023-02-28T09:38:22;10.32;;;5.70;;
53281;SDS011;39167;52.794;6.892;2023-02-28T09:40:52;6.43;;;3.70;;
53281;SDS011;39167;52.794;6.892;2023-02-28T09:43:22;5.78;;;2.92;;
53281;SDS011;39167;52.794;6.892;2023-02-28T09:45:58;7.97;;;3.42;;
53281;SDS011;39167;52.794;6.892;2023-02-28T09:48:34;5.25;;;2.90;;
53281;SDS011;39167;52.794;6.892;2023-02-28T09:51:05;5.57;;;2.50;;
53281;SDS011;39167;52.794;6.892;2023-02-28T09:53:52;3.95;;;2.28;;
53281;SDS011;39167;52.794;6.892;2023-02-28T09:56:20;6.78;;;2.78;;
53281;SDS011;39167;52.794;6.892;2023-02-28T09:58:59;4.72;;;2.53;;
53281;SDS011;39167;52.794;6.892;2023-02-28T10:01:42;5.88;;;2.50;;
53281;SDS011;39167;52.794;6.892;2023-02-28T10:06:59;4.45;;;2.63;;
53281;SDS011;39167;52.794;6.892;2023-02-28T10:09:31;4.93;;;2.83;;
53281;SDS011;39167;52.794;6.892;2023-02-28T10:12:03;3.83;;;2.30;;
53281;SDS011;39167;52.794;6.892;2023-02-28T10:14:31;4.75;;;2.53;;
53281;SDS011;39167;52.794;6.892;2023-02-28T10:17:03;5.45;;;2.47;;
53281;SDS011;39167;52.794;6.892;2023-02-28T10:22:25;5.00;;;2.28;;
53281;SDS011;39167;52.794;6.892;2023-02-28T10:25:01;5.95;;;2.47;;
53281;SDS011;39167;52.794;6.892;2023-02-28T10:27:40;4.93;;;2.35;;
53281;SDS011;39167;52.794;6.892;2023-02-28T10:30:05;5.10;;;2.38;;
53281;SDS011;39167;52.794;6.892;2023-02-28T10:32:36;4.15;;;2.17;;
53281;SDS011;39167;52.794;6.892;2023-02-28T10:37:41;7.43;;;2.30;;
53281;SDS011;39167;52.794;6.892;2023-02-28T10:45:31;6.50;;;2.25;;
53281;SDS011;39167;52.794;6.892;2023-02-28T10:47:59;4.40;;;2.10;;
53281;SDS011;39167;52.794;6.892;2023-02-28T10:55:58;6.38;;;2.08;;
53281;SDS011;39167;52.794;6.892;2023-02-28T10:58:30;4.13;;;1.80;;
53281;SDS011;39167;52.794;6.892;2023-02-28T11:01:11;3.30;;;1.80;;
53281;SDS011;39167;52.794;6.892;2023-02-28T11:03:47;4.13;;;2.00;;
53281;SDS011;39167;52.794;6.892;2023-02-28T11:06:18;3.60;;;1.80;;
53281;SDS011;39167;52.794;6.892;2023-02-28T11:08:49;4.80;;;2.00;;
53281;SDS011;39167;52.794;6.892;2023-02-28T11:13:42;5.22;;;1.85;;
53281;SDS011;39167;52.794;6.892;2023-02-28T11:16:10;4.13;;;2.00;;
53281;SDS011;39167;52.794;6.892;2023-02-28T11:21:17;4.10;;;2.20;;
53281;SDS011;39167;52.794;6.892;2023-02-28T11:23:52;4.68;;;2.28;;
53281;SDS011;39167;52.794;6.892;2023-02-28T11:26:46;4.45;;;1.98;;
53281;SDS011;39167;52.794;6.892;2023-02-28T11:29:20;4.28;;;1.83;;
53281;SDS011;39167;52.794;6.892;2023-02-28T11:34:49;3.25;;;1.75;;
53281;SDS011;39167;52.794;6.892;2023-02-28T11:37:34;3.78;;;2.00;;
53281;SDS011;39167;52.794;6.892;2023-02-28T11:40:00;3.75;;;1.95;;
53281;SDS011;39167;52.794;6.892;2023-02-28T11:42:32;2.83;;;1.67;;
53281;SDS011;39167;52.794;6.892;2023-02-28T11:56:24;5.70;;;2.22;;
53281;SDS011;39167;52.794;6.892;2023-02-28T12:06:52;4.70;;;2.00;;
53281;SDS011;39167;52.794;6.892;2023-02-28T12:12:23;4.63;;;2.00;;
53281;SDS011;39167;52.794;6.892;2023-02-28T12:20:27;4.07;;;2.30;;
53281;SDS011;39167;52.794;6.892;2023-02-28T12:22:59;7.00;;;2.50;;
53281;SDS011;39167;52.794;6.892;2023-02-28T12:25:47;3.28;;;2.05;;
53281;SDS011;39167;52.794;6.892;2023-02-28T12:28:35;5.97;;;2.40;;
53281;SDS011;39167;52.794;6.892;2023-02-28T12:31:26;7.88;;;2.80;;
53281;SDS011;39167;52.794;6.892;2023-02-28T12:34:01;5.53;;;3.08;;
53281;SDS011;39167;52.794;6.892;2023-02-28T12:36:31;5.03;;;2.38;;
53281;SDS011;39167;52.794;6.892;2023-02-28T12:39:10;4.85;;;2.55;;
53281;SDS011;39167;52.794;6.892;2023-02-28T12:41:48;4.28;;;2.40;;
53281;SDS011;39167;52.794;6.892;2023-02-28T12:44:30;4.85;;;2.22;;
53281;SDS011;39167;52.794;6.892;2023-02-28T12:47:01;5.43;;;2.55;;
53281;SDS011;39167;52.794;6.892;2023-02-28T12:49:45;5.93;;;2.40;;
53281;SDS011;39167;52.794;6.892;2023-02-28T12:52:22;3.72;;;2.47;;
53281;SDS011;39167;52.794;6.892;2023-02-28T12:55:00;7.22;;;2.38;;
53281;SDS011;39167;52.794;6.892;2023-02-28T13:00:14;43.53;;;6.93;;
53281;SDS011;39167;52.794;6.892;2023-02-28T13:08:50;20.52;;;3.38;;
53281;SDS011;39167;52.794;6.892;2023-02-28T13:11:46;4.72;;;2.45;;
53281;SDS011;39167;52.794;6.892;2023-02-28T13:16:54;6.13;;;2.30;;
53281;SDS011;39167;52.794;6.892;2023-02-28T13:19:27;3.60;;;2.55;;
53281;SDS011;39167;52.794;6.892;2023-02-28T13:21:58;3.60;;;2.22;;
53281;SDS011;39167;52.794;6.892;2023-02-28T13:27:20;4.47;;;2.58;;
53281;SDS011;39167;52.794;6.892;2023-02-28T13:29:49;4.45;;;2.10;;
53281;SDS011;39167;52.794;6.892;2023-02-28T13:32:19;4.00;;;2.33;;
53281;SDS011;39167;52.794;6.892;2023-02-28T13:47:30;3.60;;;2.10;;
53281;SDS011;39167;52.794;6.892;2023-02-28T13:55:46;5.60;;;2.83;;
53281;SDS011;39167;52.794;6.892;2023-02-28T14:01:31;3.63;;;2.20;;
53281;SDS011;39167;52.794;6.892;2023-02-28T14:06:41;3.33;;;2.00;;
53281;SDS011;39167;52.794;6.892;2023-02-28T14:09:17;4.70;;;2.03;;
53281;SDS011;39167;52.794;6.892;2023-02-28T14:11:52;5.22;;;2.15;;
53281;SDS011;39167;52.794;6.892;2023-02-28T14:16:59;3.88;;;2.03;;
53281;SDS011;39167;52.794;6.892;2023-02-28T14:19:27;4.25;;;1.83;;
53281;SDS011;39167;52.794;6.892;2023-02-28T14:30:20;4.57;;;2.60;;
53281;SDS011;39167;52.794;6.892;2023-02-28T14:36:03;4.13;;;2.50;;
53281;SDS011;39167;52.794;6.892;2023-02-28T14:41:12;4.70;;;2.65;;
53281;SDS011;39167;52.794;6.892;2023-02-28T14:43:50;4.63;;;2.30;;
53281;SDS011;39167;52.794;6.892;2023-02-28T14:46:22;5.00;;;2.92;;
53281;SDS011;39167;52.794;6.892;2023-02-28T14:48:55;4.95;;;2.58;;
53281;SDS011;39167;52.794;6.892;2023-02-28T14:51:21;6.22;;;2.55;;
53281;SDS011;39167;52.794;6.892;2023-02-28T14:53:50;6.05;;;2.60;;
53281;SDS011;39167;52.794;6.892;2023-02-28T14:56:22;4.60;;;2.53;;
53281;SDS011;39167;52.794;6.892;2023-02-28T14:58:56;4.60;;;2.22;;
53281;SDS011;39167;52.794;6.892;2023-02-28T15:01:22;6.35;;;2.08;;
53281;SDS011;39167;52.794;6.892;2023-02-28T15:03:56;4.25;;;2.40;;
53281;SDS011;39167;52.794;6.892;2023-02-28T15:06:32;4.70;;;2.28;;
53281;SDS011;39167;52.794;6.892;2023-02-28T15:09:08;5.15;;;2.53;;
53281;SDS011;39167;52.794;6.892;2023-02-28T15:11:37;5.18;;;2.35;;
53281;SDS011;39167;52.794;6.892;2023-02-28T15:14:05;5.10;;;2.50;;
53281;SDS011;39167;52.794;6.892;2023-02-28T15:16:38;6.78;;;2.55;;
53281;SDS011;39167;52.794;6.892;2023-02-28T15:21:56;4.00;;;2.28;;
53281;SDS011;39167;52.794;6.892;2023-02-28T15:24:47;3.17;;;2.15;;
53281;SDS011;39167;52.794;6.892;2023-02-28T15:27:16;4.03;;;2.25;;
53281;SDS011;39167;52.794;6.892;2023-02-28T15:29:47;3.78;;;2.30;;
53281;SDS011;39167;52.794;6.892;2023-02-28T15:34:56;5.32;;;2.78;;
53281;SDS011;39167;52.794;6.892;2023-02-28T15:37:27;4.72;;;2.10;;
53281;SDS011;39167;52.794;6.892;2023-02-28T15:39:56;5.43;;;2.47;;
53281;SDS011;39167;52.794;6.892;2023-02-28T15:42:29;7.15;;;2.38;;
53281;SDS011;39167;52.794;6.892;2023-02-28T15:44:59;4.10;;;2.10;;
53281;SDS011;39167;52.794;6.892;2023-02-28T15:47:26;6.05;;;2.40;;
53281;SDS011;39167;52.794;6.892;2023-02-28T15:49:54;5.13;;;2.40;;
53281;SDS011;39167;52.794;6.892;2023-02-28T15:57:52;4.63;;;2.60;;
53281;SDS011;39167;52.794;6.892;2023-02-28T16:00:24;6.35;;;2.60;;
53281;SDS011;39167;52.794;6.892;2023-02-28T16:02:51;5.47;;;2.25;;
53281;SDS011;39167;52.794;6.892;2023-02-28T16:05:24;3.17;;;2.13;;
53281;SDS011;39167;52.794;6.892;2023-02-28T16:08:06;4.43;;;2.08;;
53281;SDS011;39167;52.794;6.892;2023-02-28T16:10:38;4.95;;;2.58;;
53281;SDS011;39167;52.794;6.892;2023-02-28T16:13:04;7.38;;;2.58;;
53281;SDS011;39167;52.794;6.892;2023-02-28T16:15:31;5.72;;;2.65;;
53281;SDS011;39167;52.794;6.892;2023-02-28T16:18:07;3.90;;;1.92;;
53281;SDS011;39167;52.794;6.892;2023-02-28T16:20:36;3.70;;;2.00;;
53281;SDS011;39167;52.794;6.892;2023-02-28T16:23:02;6.57;;;2.22;;
53281;SDS011;39167;52.794;6.892;2023-02-28T16:25:40;4.65;;;2.50;;
53281;SDS011;39167;52.794;6.892;2023-02-28T16:28:19;4.57;;;2.20;;
53281;SDS011;39167;52.794;6.892;2023-02-28T16:30:51;7.70;;;2.65;;
53281;SDS011;39167;52.794;6.892;2023-02-28T16:33:17;4.25;;;2.42;;
53281;SDS011;39167;52.794;6.892;2023-02-28T16:35:42;5.30;;;2.55;;
53281;SDS011;39167;52.794;6.892;2023-02-28T16:38:08;4.38;;;2.60;;
53281;SDS011;39167;52.794;6.892;2023-02-28T16:40:37;5.50;;;2.70;;
53281;SDS011;39167;52.794;6.892;2023-02-28T16:43:11;5.00;;;2.55;;
53281;SDS011;39167;52.794;6.892;2023-02-28T16:45:46;4.07;;;2.38;;
53281;SDS011;39167;52.794;6.892;2023-02-28T16:48:13;4.60;;;2.60;;
53281;SDS011;39167;52.794;6.892;2023-02-28T16:50:40;6.28;;;2.80;;
53281;SDS011;39167;52.794;6.892;2023-02-28T16:53:07;5.10;;;2.67;;
53281;SDS011;39167;52.794;6.892;2023-02-28T16:55:33;3.95;;;2.55;;
53281;SDS011;39167;52.794;6.892;2023-02-28T16:58:00;5.82;;;2.90;;
53281;SDS011;39167;52.794;6.892;2023-02-28T17:00:27;6.28;;;3.10;;
53281;SDS011;39167;52.794;6.892;2023-02-28T17:02:55;6.07;;;2.90;;
53281;SDS011;39167;52.794;6.892;2023-02-28T17:05:21;5.00;;;2.33;;
53281;SDS011;39167;52.794;6.892;2023-02-28T17:07:48;4.78;;;2.67;;
53281;SDS011;39167;52.794;6.892;2023-02-28T17:10:18;4.97;;;2.60;;
53281;SDS011;39167;52.794;6.892;2023-02-28T17:12:47;5.53;;;2.72;;
53281;SDS011;39167;52.794;6.892;2023-02-28T17:15:13;6.10;;;2.78;;
53281;SDS011;39167;52.794;6.892;2023-02-28T17:17:40;7.00;;;3.00;;
53281;SDS011;39167;52.794;6.892;2023-02-28T17:20:17;6.72;;;3.33;;
53281;SDS011;39167;52.794;6.892;2023-02-28T17:22:47;5.55;;;3.30;;
53281;SDS011;39167;52.794;6.892;2023-02-28T17:25:16;7.50;;;3.17;;
53281;SDS011;39167;52.794;6.892;2023-02-28T17:27:42;7.30;;;3.38;;
53281;SDS011;39167;52.794;6.892;2023-02-28T17:30:15;5.10;;;3.03;;
53281;SDS011;39167;52.794;6.892;2023-02-28T17:32:41;5.70;;;3.40;;
53281;SDS011;39167;52.794;6.892;2023-02-28T17:35:07;5.72;;;2.97;;